KMMT/MMT METAR and TAF weather

Enter ICAO airport designator
Station Type Date Time Source
KMMT METAR 2019/02/22 23:56 UTC NOAA

KMMT 222356Z AUTO 05008KT 6SM BR OVC004 12/12 A3027 RMK AO2 SLPNO 60000 T01160116 10133 20116 52010 $


Station Type Date Time Source
KMMT Decoded METAR 2019/02/22 23:56 UTC NOAA

McEntire Air National Guard Weather Facility Base, SC, United States (KMMT) 33-55N 080-48W
Feb 22, 2019 - 06:56 PM EST / 2019.02.22 2356 UTC
Wind: from the NE (050 degrees) at 9 MPH (8 KT):0
Visibility: 6 mile(s):0
Sky conditions: overcast
Weather: mist
Temperature: 52.9 F (11.6 C)
Dew Point: 52.9 F (11.6 C)
Relative Humidity: 100%
Pressure (altimeter): 30.27 in. Hg (1025 hPa)
Pressure tendency: 0.03 inches (1.0 hPa) higher than three hours ago
ob: KMMT 222356Z AUTO 05008KT 6SM BR OVC004 12/12 A3027 RMK AO2 SLPNO 60000 T01160116 10133 20116 52010
cycle: 0

Station Type Date Time Source
KMMT TAF 2019/02/23 00:06 UTC NOAA

TAF KMMT 230000Z 2300/2406 06009KT 6000 BR OVC003 QNH3024INS
BECMG 2307/2308 05009KT 6000 -RA BR OVC004 QNH3026INS
BECMG 2314/2315 06009KT 9999 NSW OVC006 QNH3011INS
BECMG 2400/2401 07006KT 8000 BR OVC004 QNH3000INS TX13/2321Z TN09/2313Z


Example: see airport list